sensor_id;sensor_type;location;lat;lon;timestamp;temperature;humidity
20335;DHT22;10325;51.468;5.804;2023-02-04T00:01:56;16.70;61.70
20335;DHT22;10325;51.468;5.804;2023-02-04T00:04:25;16.70;61.70
20335;DHT22;10325;51.468;5.804;2023-02-04T00:06:54;16.60;61.80
20335;DHT22;10325;51.468;5.804;2023-02-04T00:09:26;16.60;61.80
20335;DHT22;10325;51.468;5.804;2023-02-04T00:11:58;16.60;61.80
20335;DHT22;10325;51.468;5.804;2023-02-04T00:14:27;16.60;61.90
20335;DHT22;10325;51.468;5.804;2023-02-04T00:16:58;16.60;61.90
20335;DHT22;10325;51.468;5.804;2023-02-04T00:19:29;16.60;61.90
20335;DHT22;10325;51.468;5.804;2023-02-04T00:22:10;16.60;61.90
20335;DHT22;10325;51.468;5.804;2023-02-04T00:24:41;16.60;62.00
20335;DHT22;10325;51.468;5.804;2023-02-04T00:27:13;16.60;62.00
20335;DHT22;10325;51.468;5.804;2023-02-04T00:29:46;16.60;61.90
20335;DHT22;10325;51.468;5.804;2023-02-04T00:32:20;16.60;62.00
20335;DHT22;10325;51.468;5.804;2023-02-04T00:34:51;16.60;62.00
20335;DHT22;10325;51.468;5.804;2023-02-04T00:37:22;16.60;62.00
20335;DHT22;10325;51.468;5.804;2023-02-04T00:39:54;16.60;62.00
20335;DHT22;10325;51.468;5.804;2023-02-04T00:42:26;16.60;62.00
20335;DHT22;10325;51.468;5.804;2023-02-04T00:44:54;16.60;62.10
20335;DHT22;10325;51.468;5.804;2023-02-04T00:47:22;16.60;62.10
20335;DHT22;10325;51.468;5.804;2023-02-04T00:49:52;16.60;62.10
20335;DHT22;10325;51.468;5.804;2023-02-04T00:52:24;16.60;62.10
20335;DHT22;10325;51.468;5.804;2023-02-04T00:54:57;16.60;62.10
20335;DHT22;10325;51.468;5.804;2023-02-04T00:57:29;16.60;62.10
20335;DHT22;10325;51.468;5.804;2023-02-04T01:00:02;16.50;62.10
20335;DHT22;10325;51.468;5.804;2023-02-04T01:02:33;16.50;62.10
20335;DHT22;10325;51.468;5.804;2023-02-04T01:05:03;16.50;62.10
20335;DHT22;10325;51.468;5.804;2023-02-04T01:07:33;16.50;62.10
20335;DHT22;10325;51.468;5.804;2023-02-04T01:10:02;16.50;62.20
20335;DHT22;10325;51.468;5.804;2023-02-04T01:12:41;16.50;62.20
20335;DHT22;10325;51.468;5.804;2023-02-04T01:15:12;16.50;62.20
20335;DHT22;10325;51.468;5.804;2023-02-04T01:17:43;16.50;62.20
20335;DHT22;10325;51.468;5.804;2023-02-04T01:20:15;16.50;62.20
20335;DHT22;10325;51.468;5.804;2023-02-04T01:22:44;16.50;62.10
20335;DHT22;10325;51.468;5.804;2023-02-04T01:25:16;16.50;62.30
20335;DHT22;10325;51.468;5.804;2023-02-04T01:27:48;16.50;62.30
20335;DHT22;10325;51.468;5.804;2023-02-04T01:30:25;16.50;62.30
20335;DHT22;10325;51.468;5.804;2023-02-04T01:32:53;16.50;62.30
20335;DHT22;10325;51.468;5.804;2023-02-04T01:35:23;16.50;62.30
20335;DHT22;10325;51.468;5.804;2023-02-04T01:37:54;16.50;62.40
20335;DHT22;10325;51.468;5.804;2023-02-04T01:40:26;16.50;62.40
20335;DHT22;10325;51.468;5.804;2023-02-04T01:42:59;16.50;62.40
20335;DHT22;10325;51.468;5.804;2023-02-04T01:45:30;16.50;62.40
20335;DHT22;10325;51.468;5.804;2023-02-04T01:48:03;16.50;62.40
20335;DHT22;10325;51.468;5.804;2023-02-04T01:50:34;16.50;62.50
20335;DHT22;10325;51.468;5.804;2023-02-04T01:53:06;16.50;62.40
20335;DHT22;10325;51.468;5.804;2023-02-04T01:55:38;16.50;62.50
20335;DHT22;10325;51.468;5.804;2023-02-04T01:58:11;16.50;62.60
20335;DHT22;10325;51.468;5.804;2023-02-04T02:00:42;16.40;62.60
20335;DHT22;10325;51.468;5.804;2023-02-04T02:03:13;16.50;62.60
20335;DHT22;10325;51.468;5.804;2023-02-04T02:05:51;16.40;62.50
20335;DHT22;10325;51.468;5.804;2023-02-04T02:08:23;16.40;62.70
20335;DHT22;10325;51.468;5.804;2023-02-04T02:10:52;16.50;62.70
20335;DHT22;10325;51.468;5.804;2023-02-04T02:13:23;16.50;62.70
20335;DHT22;10325;51.468;5.804;2023-02-04T02:15:53;16.50;62.70
20335;DHT22;10325;51.468;5.804;2023-02-04T02:18:24;16.40;62.70
20335;DHT22;10325;51.468;5.804;2023-02-04T02:20:56;16.40;62.70
20335;DHT22;10325;51.468;5.804;2023-02-04T02:23:54;16.40;62.80
20335;DHT22;10325;51.468;5.804;2023-02-04T02:26:32;16.40;62.70
20335;DHT22;10325;51.468;5.804;2023-02-04T02:29:05;16.40;62.80
20335;DHT22;10325;51.468;5.804;2023-02-04T02:31:37;16.40;62.80
20335;DHT22;10325;51.468;5.804;2023-02-04T02:34:08;16.40;62.80
20335;DHT22;10325;51.468;5.804;2023-02-04T02:36:46;16.40;62.90
20335;DHT22;10325;51.468;5.804;2023-02-04T02:39:15;16.40;62.80
20335;DHT22;10325;51.468;5.804;2023-02-04T02:41:46;16.40;62.80
20335;DHT22;10325;51.468;5.804;2023-02-04T02:44:19;16.40;62.80
20335;DHT22;10325;51.468;5.804;2023-02-04T02:46:50;16.40;62.80
20335;DHT22;10325;51.468;5.804;2023-02-04T02:49:25;16.40;62.90
20335;DHT22;10325;51.468;5.804;2023-02-04T02:51:57;16.40;62.90
20335;DHT22;10325;51.468;5.804;2023-02-04T02:54:30;16.40;62.90
20335;DHT22;10325;51.468;5.804;2023-02-04T02:56:57;16.40;62.90
20335;DHT22;10325;51.468;5.804;2023-02-04T02:59:29;16.40;62.90
20335;DHT22;10325;51.468;5.804;2023-02-04T03:02:02;16.40;63.00
20335;DHT22;10325;51.468;5.804;2023-02-04T03:04:46;16.30;62.90
20335;DHT22;10325;51.468;5.804;2023-02-04T03:07:17;16.40;62.90
20335;DHT22;10325;51.468;5.804;2023-02-04T03:09:58;16.30;62.90
20335;DHT22;10325;51.468;5.804;2023-02-04T03:12:28;16.40;63.00
20335;DHT22;10325;51.468;5.804;2023-02-04T03:14:59;16.40;63.00
20335;DHT22;10325;51.468;5.804;2023-02-04T03:17:30;16.40;63.10
20335;DHT22;10325;51.468;5.804;2023-02-04T03:20:01;16.40;63.10
20335;DHT22;10325;51.468;5.804;2023-02-04T03:22:41;16.40;63.00
20335;DHT22;10325;51.468;5.804;2023-02-04T03:25:13;16.40;63.10
20335;DHT22;10325;51.468;5.804;2023-02-04T03:28:00;16.40;63.10
20335;DHT22;10325;51.468;5.804;2023-02-04T03:30:28;16.40;63.10
20335;DHT22;10325;51.468;5.804;2023-02-04T03:33:00;16.30;63.10
20335;DHT22;10325;51.468;5.804;2023-02-04T03:35:31;16.40;63.10
20335;DHT22;10325;51.468;5.804;2023-02-04T03:37:59;16.40;63.10
20335;DHT22;10325;51.468;5.804;2023-02-04T03:40:30;16.30;63.10
20335;DHT22;10325;51.468;5.804;2023-02-04T03:43:00;16.30;63.10
20335;DHT22;10325;51.468;5.804;2023-02-04T03:45:30;16.30;63.10
20335;DHT22;10325;51.468;5.804;2023-02-04T03:48:12;16.30;63.10
20335;DHT22;10325;51.468;5.804;2023-02-04T03:50:43;16.30;63.10
20335;DHT22;10325;51.468;5.804;2023-02-04T03:53:14;16.30;63.20
20335;DHT22;10325;51.468;5.804;2023-02-04T03:55:46;16.30;63.20
20335;DHT22;10325;51.468;5.804;2023-02-04T03:58:18;16.30;63.10
20335;DHT22;10325;51.468;5.804;2023-02-04T04:00:49;16.30;63.20
20335;DHT22;10325;51.468;5.804;2023-02-04T04:03:20;16.30;63.20
20335;DHT22;10325;51.468;5.804;2023-02-04T04:05:50;16.30;63.20
20335;DHT22;10325;51.468;5.804;2023-02-04T04:08:22;16.30;63.20
20335;DHT22;10325;51.468;5.804;2023-02-04T04:10:53;16.30;63.30
20335;DHT22;10325;51.468;5.804;2023-02-04T04:13:27;16.30;63.20
20335;DHT22;10325;51.468;5.804;2023-02-04T04:15:57;16.30;63.20
20335;DHT22;10325;51.468;5.804;2023-02-04T04:18:40;16.30;63.20
20335;DHT22;10325;51.468;5.804;2023-02-04T04:21:09;16.30;63.20
20335;DHT22;10325;51.468;5.804;2023-02-04T04:23:42;16.30;63.20
20335;DHT22;10325;51.468;5.804;2023-02-04T04:26:13;16.30;63.20
20335;DHT22;10325;51.468;5.804;2023-02-04T04:28:45;16.30;63.30
20335;DHT22;10325;51.468;5.804;2023-02-04T04:31:17;16.30;63.30
20335;DHT22;10325;51.468;5.804;2023-02-04T04:33:49;16.30;63.90
20335;DHT22;10325;51.468;5.804;2023-02-04T04:36:19;16.30;63.30
20335;DHT22;10325;51.468;5.804;2023-02-04T04:38:50;16.30;63.40
20335;DHT22;10325;51.468;5.804;2023-02-04T04:41:25;16.30;63.30
20335;DHT22;10325;51.468;5.804;2023-02-04T04:43:56;16.30;63.40
20335;DHT22;10325;51.468;5.804;2023-02-04T04:46:26;16.30;63.30
20335;DHT22;10325;51.468;5.804;2023-02-04T04:48:56;16.30;64.00
20335;DHT22;10325;51.468;5.804;2023-02-04T04:51:28;16.30;63.40
20335;DHT22;10325;51.468;5.804;2023-02-04T04:54:01;16.30;63.40
20335;DHT22;10325;51.468;5.804;2023-02-04T04:56:37;16.30;63.40
20335;DHT22;10325;51.468;5.804;2023-02-04T04:59:07;16.30;63.40
20335;DHT22;10325;51.468;5.804;2023-02-04T05:01:38;16.30;63.50
20335;DHT22;10325;51.468;5.804;2023-02-04T05:04:11;16.30;63.40
20335;DHT22;10325;51.468;5.804;2023-02-04T05:06:43;16.30;63.40
20335;DHT22;10325;51.468;5.804;2023-02-04T05:09:16;16.30;63.40
20335;DHT22;10325;51.468;5.804;2023-02-04T05:11:50;16.20;63.40
20335;DHT22;10325;51.468;5.804;2023-02-04T05:14:20;16.30;63.50
20335;DHT22;10325;51.468;5.804;2023-02-04T05:16:53;16.30;63.50
20335;DHT22;10325;51.468;5.804;2023-02-04T05:19:23;16.30;63.50
20335;DHT22;10325;51.468;5.804;2023-02-04T05:21:53;16.30;63.50
20335;DHT22;10325;51.468;5.804;2023-02-04T05:24:27;16.20;63.50
20335;DHT22;10325;51.468;5.804;2023-02-04T05:26:58;16.20;63.50
20335;DHT22;10325;51.468;5.804;2023-02-04T05:29:29;16.30;63.50
20335;DHT22;10325;51.468;5.804;2023-02-04T05:32:13;16.20;63.60
20335;DHT22;10325;51.468;5.804;2023-02-04T05:34:45;16.30;63.50
20335;DHT22;10325;51.468;5.804;2023-02-04T05:37:17;16.30;63.50
20335;DHT22;10325;51.468;5.804;2023-02-04T05:39:49;16.30;63.60
20335;DHT22;10325;51.468;5.804;2023-02-04T05:42:21;16.30;63.60
20335;DHT22;10325;51.468;5.804;2023-02-04T05:44:51;16.20;63.50
20335;DHT22;10325;51.468;5.804;2023-02-04T05:47:23;16.20;63.50
20335;DHT22;10325;51.468;5.804;2023-02-04T05:49:53;16.20;63.50
20335;DHT22;10325;51.468;5.804;2023-02-04T05:52:25;16.20;63.60
20335;DHT22;10325;51.468;5.804;2023-02-04T05:54:56;16.20;63.60
20335;DHT22;10325;51.468;5.804;2023-02-04T05:57:28;16.20;63.60
20335;DHT22;10325;51.468;5.804;2023-02-04T05:59:58;16.20;63.50
20335;DHT22;10325;51.468;5.804;2023-02-04T06:02:28;16.20;63.50
20335;DHT22;10325;51.468;5.804;2023-02-04T06:05:01;16.20;63.40
20335;DHT22;10325;51.468;5.804;2023-02-04T06:07:48;16.20;63.40
20335;DHT22;10325;51.468;5.804;2023-02-04T06:10:22;16.20;63.50
20335;DHT22;10325;51.468;5.804;2023-02-04T06:12:53;16.20;63.40
20335;DHT22;10325;51.468;5.804;2023-02-04T06:15:23;16.20;63.40
20335;DHT22;10325;51.468;5.804;2023-02-04T06:17:53;16.20;63.40
20335;DHT22;10325;51.468;5.804;2023-02-04T06:20:23;16.20;63.40
20335;DHT22;10325;51.468;5.804;2023-02-04T06:22:52;16.20;63.40
20335;DHT22;10325;51.468;5.804;2023-02-04T06:25:23;16.20;63.40
20335;DHT22;10325;51.468;5.804;2023-02-04T06:27:56;16.20;63.40
20335;DHT22;10325;51.468;5.804;2023-02-04T06:30:29;16.20;63.40
20335;DHT22;10325;51.468;5.804;2023-02-04T06:33:01;16.20;63.30
20335;DHT22;10325;51.468;5.804;2023-02-04T06:35:33;16.20;63.30
20335;DHT22;10325;51.468;5.804;2023-02-04T06:38:04;16.20;63.30
20335;DHT22;10325;51.468;5.804;2023-02-04T06:40:35;16.20;63.30
20335;DHT22;10325;51.468;5.804;2023-02-04T06:43:14;16.20;63.20
20335;DHT22;10325;51.468;5.804;2023-02-04T06:45:46;16.20;63.20
20335;DHT22;10325;51.468;5.804;2023-02-04T06:48:35;16.20;63.20
20335;DHT22;10325;51.468;5.804;2023-02-04T06:51:04;16.20;63.20
20335;DHT22;10325;51.468;5.804;2023-02-04T06:53:34;16.10;63.20
20335;DHT22;10325;51.468;5.804;2023-02-04T06:56:06;16.20;63.20
20335;DHT22;10325;51.468;5.804;2023-02-04T06:58:36;16.20;63.10
20335;DHT22;10325;51.468;5.804;2023-02-04T07:01:04;16.20;63.10
20335;DHT22;10325;51.468;5.804;2023-02-04T07:03:39;16.20;63.10
20335;DHT22;10325;51.468;5.804;2023-02-04T07:06:09;16.20;63.00
20335;DHT22;10325;51.468;5.804;2023-02-04T07:08:43;16.20;63.00
20335;DHT22;10325;51.468;5.804;2023-02-04T07:11:14;16.20;63.00
20335;DHT22;10325;51.468;5.804;2023-02-04T07:13:44;16.20;63.10
20335;DHT22;10325;51.468;5.804;2023-02-04T07:16:14;16.10;63.00
20335;DHT22;10325;51.468;5.804;2023-02-04T07:18:47;16.20;63.10
20335;DHT22;10325;51.468;5.804;2023-02-04T07:21:16;16.20;63.20
20335;DHT22;10325;51.468;5.804;2023-02-04T07:23:48;16.10;63.10
20335;DHT22;10325;51.468;5.804;2023-02-04T07:26:19;16.20;63.10
20335;DHT22;10325;51.468;5.804;2023-02-04T07:28:53;16.10;63.00
20335;DHT22;10325;51.468;5.804;2023-02-04T07:31:24;16.10;63.00
20335;DHT22;10325;51.468;5.804;2023-02-04T07:33:58;16.10;63.00
20335;DHT22;10325;51.468;5.804;2023-02-04T07:36:32;16.10;62.90
20335;DHT22;10325;51.468;5.804;2023-02-04T07:39:04;16.10;62.90
20335;DHT22;10325;51.468;5.804;2023-02-04T07:41:35;16.10;62.90
20335;DHT22;10325;51.468;5.804;2023-02-04T07:44:16;16.10;62.90
20335;DHT22;10325;51.468;5.804;2023-02-04T07:46:46;16.10;63.00
20335;DHT22;10325;51.468;5.804;2023-02-04T07:49:15;16.10;63.10
20335;DHT22;10325;51.468;5.804;2023-02-04T07:51:44;16.10;63.10
20335;DHT22;10325;51.468;5.804;2023-02-04T07:54:15;16.10;63.30
20335;DHT22;10325;51.468;5.804;2023-02-04T07:56:42;16.20;63.20
20335;DHT22;10325;51.468;5.804;2023-02-04T07:59:13;16.20;63.50
20335;DHT22;10325;51.468;5.804;2023-02-04T08:01:44;16.20;63.40
20335;DHT22;10325;51.468;5.804;2023-02-04T08:04:28;16.20;63.50
20335;DHT22;10325;51.468;5.804;2023-02-04T08:06:58;16.20;63.30
20335;DHT22;10325;51.468;5.804;2023-02-04T08:09:28;16.20;63.40
20335;DHT22;10325;51.468;5.804;2023-02-04T08:12:01;16.20;63.90
20335;DHT22;10325;51.468;5.804;2023-02-04T08:14:31;16.30;64.60
20335;DHT22;10325;51.468;5.804;2023-02-04T08:16:59;16.30;64.30
20335;DHT22;10325;51.468;5.804;2023-02-04T08:19:26;16.30;63.90
20335;DHT22;10325;51.468;5.804;2023-02-04T08:21:54;16.40;63.60
20335;DHT22;10325;51.468;5.804;2023-02-04T08:24:24;16.50;63.40
20335;DHT22;10325;51.468;5.804;2023-02-04T08:26:53;16.50;63.40
20335;DHT22;10325;51.468;5.804;2023-02-04T08:29:23;16.60;63.30
20335;DHT22;10325;51.468;5.804;2023-02-04T08:31:53;16.70;63.10
20335;DHT22;10325;51.468;5.804;2023-02-04T08:34:25;16.60;63.80
20335;DHT22;10325;51.468;5.804;2023-02-04T08:36:56;16.70;64.80
20335;DHT22;10325;51.468;5.804;2023-02-04T08:39:28;16.80;65.30
20335;DHT22;10325;51.468;5.804;2023-02-04T08:42:01;16.80;65.40
20335;DHT22;10325;51.468;5.804;2023-02-04T08:44:30;16.90;65.00
20335;DHT22;10325;51.468;5.804;2023-02-04T08:46:58;16.90;64.50
20335;DHT22;10325;51.468;5.804;2023-02-04T08:49:28;16.90;64.10
20335;DHT22;10325;51.468;5.804;2023-02-04T08:52:00;16.90;64.50
20335;DHT22;10325;51.468;5.804;2023-02-04T08:54:33;17.00;63.60
20335;DHT22;10325;51.468;5.804;2023-02-04T08:57:05;17.00;63.30
20335;DHT22;10325;51.468;5.804;2023-02-04T08:59:35;17.10;63.30
20335;DHT22;10325;51.468;5.804;2023-02-04T09:02:08;17.10;63.70
20335;DHT22;10325;51.468;5.804;2023-02-04T09:04:38;17.10;63.70
20335;DHT22;10325;51.468;5.804;2023-02-04T09:07:12;17.10;63.70
20335;DHT22;10325;51.468;5.804;2023-02-04T09:09:44;17.20;63.70
20335;DHT22;10325;51.468;5.804;2023-02-04T09:12:16;17.20;63.00
20335;DHT22;10325;51.468;5.804;2023-02-04T09:14:44;17.20;63.70
20335;DHT22;10325;51.468;5.804;2023-02-04T09:17:28;17.30;63.40
20335;DHT22;10325;51.468;5.804;2023-02-04T09:19:56;17.30;63.70
20335;DHT22;10325;51.468;5.804;2023-02-04T09:22:27;17.30;63.60
20335;DHT22;10325;51.468;5.804;2023-02-04T09:24:58;17.30;63.10
20335;DHT22;10325;51.468;5.804;2023-02-04T09:27:26;17.30;63.00
20335;DHT22;10325;51.468;5.804;2023-02-04T09:29:58;17.40;63.20
20335;DHT22;10325;51.468;5.804;2023-02-04T09:32:34;17.40;63.30
20335;DHT22;10325;51.468;5.804;2023-02-04T09:35:07;17.50;63.10
20335;DHT22;10325;51.468;5.804;2023-02-04T09:37:39;17.50;62.90
20335;DHT22;10325;51.468;5.804;2023-02-04T09:40:16;17.60;62.70
20335;DHT22;10325;51.468;5.804;2023-02-04T09:42:44;17.60;62.00
20335;DHT22;10325;51.468;5.804;2023-02-04T09:45:30;17.60;61.90
20335;DHT22;10325;51.468;5.804;2023-02-04T09:48:02;17.70;62.00
20335;DHT22;10325;51.468;5.804;2023-02-04T09:50:34;17.80;61.60
20335;DHT22;10325;51.468;5.804;2023-02-04T09:53:05;17.80;61.10
20335;DHT22;10325;51.468;5.804;2023-02-04T09:55:48;17.90;61.10
20335;DHT22;10325;51.468;5.804;2023-02-04T09:58:22;17.90;61.10
20335;DHT22;10325;51.468;5.804;2023-02-04T10:01:26;17.90;61.60
20335;DHT22;10325;51.468;5.804;2023-02-04T10:04:00;18.00;61.40
20335;DHT22;10325;51.468;5.804;2023-02-04T10:06:31;18.00;61.50
20335;DHT22;10325;51.468;5.804;2023-02-04T10:09:00;18.00;61.70
20335;DHT22;10325;51.468;5.804;2023-02-04T10:11:31;18.00;61.70
20335;DHT22;10325;51.468;5.804;2023-02-04T10:14:23;18.10;61.20
20335;DHT22;10325;51.468;5.804;2023-02-04T10:17:03;18.00;61.60
20335;DHT22;10325;51.468;5.804;2023-02-04T10:19:34;18.00;61.10
20335;DHT22;10325;51.468;5.804;2023-02-04T10:22:19;18.00;61.00
20335;DHT22;10325;51.468;5.804;2023-02-04T10:24:51;18.00;61.00
20335;DHT22;10325;51.468;5.804;2023-02-04T10:27:23;18.00;61.20
20335;DHT22;10325;51.468;5.804;2023-02-04T10:29:58;17.90;61.00
